CheckWX is a tool to help pilots better visualize weather data.  It is not intended as a substitute for an official pre-flight weather briefing.

21:05:40 UTC

KHFD METAR
Hartford-Brainard Airport
Hartford, Connecticut, USA
Current

13 mins ago

KHFD 232053Z 19003KT 10SM CLR 04/M07 A3040 RMK AO2 SLP293 T00441067 56014 $
Observed
Feb-23 @ 20:53 UTC
Wind
  • 190° at 3 KTS
Visibility
10 SM
Flight Rules
VFR
Cloud Levels
  • Clear skies
Temperature
C / 39°F
Dewpoint
-7°C / 19°F
Humidity
45%
Altimeter
30.4" Hg
Pressure
1029.3 hPa
Previous

1 hour ago

KHFD 231953Z 00000KT 10SM CLR 04/M07 A3040 RMK AO2 SLP293 T00441072 $
Observed
Feb-23 @ 19:53 UTC
Visibility
10 SM
Flight Rules
VFR
Cloud Levels
  • Clear skies
Temperature
C / 39°F
Dewpoint
-7°C / 19°F
Humidity
45%
Altimeter
30.4" Hg
Pressure
1029.3 hPa
Previous

2 hours ago

KHFD 231853Z VRB05KT 10SM CLR 04/M07 A3042 RMK AO2 SLP300 T00391072 $
Observed
Feb-23 @ 18:53 UTC
Wind
  • Variable at 5 KTS
Visibility
10 SM
Flight Rules
VFR
Cloud Levels
  • Clear skies
Temperature
C / 39°F
Dewpoint
-7°C / 19°F
Humidity
45%
Altimeter
30.42" Hg
Pressure
1030 hPa